Time;durP1;ratioP1;P1;durP2;ratioP2;P2;SDS_P1;SDS_P2;PMS_P1;PMS_P2;Temp;Humidity;BMP_temperature;BMP_pressure;BME280_temperature;BME280_humidity;BME280_pressure;Samples;Min_cycle;Max_cycle;Signal;HPM_P1;HPM_P2
2023/12/31 00:04:38;;;;;;;11.83;9.93;;;6.20;37.80;;;;;;10562803;27;20261;-76
2023/12/31 00:09:41;;;;;;;10.30;9.23;;;6.20;37.80;;;;;;10555675;28;20241;-76
2023/12/31 00:14:45;;;;;;;12.30;10.67;;;6.10;37.70;;;;;;10553964;28;20277;-76
2023/12/31 00:19:49;;;;;;;13.53;11.67;;;6.00;37.90;;;;;;10563970;28;20253;-76
2023/12/31 00:24:54;;;;;;;13.50;10.40;;;5.90;37.80;;;;;;10562462;27;20251;-76
2023/12/31 00:29:59;;;;;;;10.00;9.00;;;5.80;38.10;;;;;;10554578;28;20712;-76
2023/12/31 00:35:02;;;;;;;11.17;9.93;;;5.70;38.60;;;;;;10553288;27;20618;-76
2023/12/31 00:40:08;;;;;;;11.27;9.83;;;5.70;38.50;;;;;;10553800;27;20230;-76
2023/12/31 00:45:13;;;;;;;11.80;10.10;;;5.80;38.60;;;;;;10550792;28;20250;-76
2023/12/31 00:50:16;;;;;;;10.53;9.37;;;5.80;38.70;;;;;;10557664;28;20223;-76
2023/12/31 00:55:19;;;;;;;9.60;8.67;;;5.90;38.40;;;;;;10552916;28;20245;-76
2023/12/31 01:00:24;;;;;;;9.30;8.40;;;5.90;38.40;;;;;;10553811;28;20287;-75
2023/12/31 01:05:27;;;;;;;9.67;8.67;;;6.00;38.40;;;;;;10564168;28;20645;-75
2023/12/31 01:10:30;;;;;;;9.03;8.27;;;6.00;38.10;;;;;;10555524;28;20746;-75
2023/12/31 01:15:35;;;;;;;9.53;8.03;;;6.10;38.00;;;;;;10557251;28;20275;-75
2023/12/31 01:20:38;;;;;;;10.23;9.23;;;6.00;38.20;;;;;;10561194;28;20749;-75
2023/12/31 01:25:43;;;;;;;8.57;7.67;;;5.90;38.20;;;;;;10559878;28;20310;-76
2023/12/31 01:30:48;;;;;;;8.70;7.80;;;5.80;38.30;;;;;;10556476;28;20235;-76
2023/12/31 01:35:51;;;;;;;8.57;7.67;;;5.80;38.70;;;;;;10556005;28;20731;-75
2023/12/31 01:40:54;;;;;;;10.50;7.40;;;5.70;38.70;;;;;;10559301;27;20254;-75
2023/12/31 01:45:59;;;;;;;7.97;7.17;;;5.70;38.90;;;;;;10562736;28;20762;-75
2023/12/31 01:51:03;;;;;;;7.80;7.00;;;5.70;39.10;;;;;;10565355;27;20233;-75
2023/12/31 01:56:07;;;;;;;8.00;6.83;;;5.80;38.90;;;;;;10564914;28;20229;-75
2023/12/31 02:01:11;;;;;;;6.60;6.00;;;5.70;38.90;;;;;;10556025;27;20235;-75
2023/12/31 02:06:15;;;;;;;6.00;5.40;;;5.60;39.30;;;;;;10551129;28;20314;-75
2023/12/31 02:11:18;;;;;;;7.90;6.60;;;5.70;39.10;;;;;;10556905;27;20310;-75
2023/12/31 02:16:24;;;;;;;7.20;6.50;;;5.70;39.00;;;;;;10567788;27;20225;-75
2023/12/31 02:21:29;;;;;;;6.17;5.63;;;5.70;39.20;;;;;;10561917;28;20224;-75
2023/12/31 02:26:34;;;;;;;6.20;5.60;;;5.70;39.10;;;;;;10556192;28;20314;-75
2023/12/31 02:31:37;;;;;;;5.93;5.03;;;5.70;39.00;;;;;;10552806;28;20302;-74
2023/12/31 02:36:41;;;;;;;6.47;5.87;;;5.70;38.70;;;;;;10556412;28;20231;-74
2023/12/31 02:41:45;;;;;;;6.33;5.50;;;5.60;38.70;;;;;;10562733;27;21085;-74
2023/12/31 02:46:48;;;;;;;7.20;6.50;;;5.60;39.00;;;;;;10561098;27;20618;-74
2023/12/31 02:51:52;;;;;;;8.07;6.80;;;5.70;38.90;;;;;;10552229;28;20224;-74
2023/12/31 02:56:57;;;;;;;7.00;5.97;;;5.70;38.90;;;;;;10553509;28;20361;-74
2023/12/31 03:02:00;;;;;;;6.27;5.40;;;5.50;39.30;;;;;;10553824;28;20725;-74
2023/12/31 03:07:06;;;;;;;5.80;5.20;;;5.50;39.20;;;;;;10546671;27;20595;-74
2023/12/31 03:12:10;;;;;;;5.83;5.20;;;5.50;39.10;;;;;;10556883;27;20241;-74
2023/12/31 03:17:15;;;;;;;7.13;4.77;;;5.50;39.30;;;;;;10546433;28;20709;-74
2023/12/31 03:22:18;;;;;;;5.87;5.30;;;5.50;39.20;;;;;;10549943;28;20219;-74
2023/12/31 03:27:41;;;;;;;4.70;4.30;;;5.50;39.00;;;;;;10546787;28;20615;-74
2023/12/31 03:32:44;;;;;;;6.13;5.00;;;5.60;39.10;;;;;;10546774;28;20285;-74
2023/12/31 03:37:47;;;;;;;6.90;5.87;;;5.60;39.10;;;;;;10550101;27;20247;-74
2023/12/31 03:42:52;;;;;;;6.07;5.53;;;5.60;38.90;;;;;;10548074;27;20303;-74
2023/12/31 03:47:55;;;;;;;5.93;5.33;;;5.70;39.10;;;;;;10550091;27;20724;-74
2023/12/31 03:52:59;;;;;;;6.17;5.07;;;5.70;38.90;;;;;;10553807;28;20223;-74
2023/12/31 03:58:05;;;;;;;5.27;4.77;;;5.70;38.70;;;;;;10550399;28;20293;-74
2023/12/31 04:03:09;;;;;;;6.00;5.10;;;5.60;38.70;;;;;;10548772;28;20262;-74
2023/12/31 04:08:12;;;;;;;9.57;5.67;;;5.60;38.70;;;;;;10552033;28;20235;-75
2023/12/31 04:13:18;;;;;;;5.47;4.97;;;5.60;38.70;;;;;;10546192;28;20306;-75
2023/12/31 04:18:22;;;;;;;5.33;4.83;;;5.60;38.90;;;;;;10548959;27;20253;-75
2023/12/31 04:23:25;;;;;;;4.53;4.13;;;5.60;38.60;;;;;;10556322;27;20219;-75
2023/12/31 04:28:29;;;;;;;6.97;4.97;;;5.60;38.40;;;;;;10552071;27;20234;-75
2023/12/31 04:33:33;;;;;;;5.33;4.83;;;5.60;38.40;;;;;;10557103;27;20238;-75
2023/12/31 04:38:36;;;;;;;5.63;5.00;;;5.50;38.30;;;;;;10552366;28;20331;-75
2023/12/31 04:43:40;;;;;;;5.13;4.23;;;5.50;38.40;;;;;;10555086;28;20642;-75
2023/12/31 04:48:44;;;;;;;4.07;3.70;;;5.50;38.70;;;;;;10554420;28;20231;-75
2023/12/31 04:53:47;;;;;;;4.77;4.27;;;5.40;38.50;;;;;;10554908;28;20310;-75
2023/12/31 04:58:53;;;;;;;4.87;4.47;;;5.50;38.70;;;;;;10549969;28;20227;-75
2023/12/31 05:03:56;;;;;;;4.50;4.10;;;5.50;38.70;;;;;;10557576;28;20225;-75
2023/12/31 05:08:59;;;;;;;4.80;4.10;;;5.50;38.50;;;;;;10553728;28;20747;-75
2023/12/31 05:14:03;;;;;;;4.37;3.97;;;5.50;38.40;;;;;;10554953;28;20211;-75
2023/12/31 05:19:07;;;;;;;4.80;4.40;;;5.50;38.40;;;;;;10552484;28;20337;-76
2023/12/31 05:24:10;;;;;;;4.00;3.70;;;5.60;38.30;;;;;;10549385;28;20309;-75
2023/12/31 05:29:14;;;;;;;4.83;4.43;;;5.50;38.10;;;;;;10547498;28;20241;-75
2023/12/31 05:34:17;;;;;;;5.23;4.73;;;5.50;38.20;;;;;;10549424;28;20311;-75
2023/12/31 05:39:21;;;;;;;5.37;4.27;;;5.40;38.00;;;;;;10547276;28;20223;-75
2023/12/31 05:44:25;;;;;;;4.87;4.37;;;5.40;37.90;;;;;;10552116;28;20238;-75
2023/12/31 05:49:28;;;;;;;4.93;4.47;;;5.30;38.00;;;;;;10552446;28;20223;-75
2023/12/31 05:54:32;;;;;;;5.93;4.40;;;5.30;38.10;;;;;;10550546;28;20225;-75
2023/12/31 05:59:36;;;;;;;4.87;4.47;;;5.20;37.90;;;;;;10541639;28;20321;-74
2023/12/31 06:04:39;;;;;;;5.63;4.70;;;5.20;38.20;;;;;;10549450;28;20667;-74
2023/12/31 06:09:42;;;;;;;4.53;4.13;;;5.10;38.10;;;;;;10540203;28;20724;-74
2023/12/31 06:14:47;;;;;;;4.57;4.17;;;5.10;38.00;;;;;;10555557;28;20227;-74
2023/12/31 06:19:50;;;;;;;6.07;5.30;;;5.10;38.20;;;;;;10550446;28;20241;-74
2023/12/31 06:24:53;;;;;;;5.20;4.70;;;5.10;38.00;;;;;;10548775;28;20220;-74
2023/12/31 06:29:58;;;;;;;6.53;5.00;;;5.10;37.70;;;;;;10546667;28;20231;-74
2023/12/31 06:35:02;;;;;;;5.00;4.50;;;4.90;37.90;;;;;;10552841;28;20276;-74
2023/12/31 06:40:06;;;;;;;4.80;4.40;;;4.80;38.00;;;;;;10562583;27;20621;-73
2023/12/31 06:45:11;;;;;;;5.13;4.63;;;4.80;38.20;;;;;;10556510;27;20306;-74
2023/12/31 06:50:15;;;;;;;6.67;5.03;;;4.80;38.60;;;;;;10553761;28;20313;-73
2023/12/31 06:55:19;;;;;;;5.20;4.73;;;4.80;38.40;;;;;;10565834;27;20646;-74
2023/12/31 07:00:23;;;;;;;6.30;4.70;;;4.80;38.50;;;;;;10558303;28;20235;-74
2023/12/31 07:05:26;;;;;;;4.80;4.30;;;4.80;38.50;;;;;;10563611;28;20288;-74
2023/12/31 07:10:30;;;;;;;4.67;4.27;;;4.90;38.40;;;;;;10553454;28;20785;-74
2023/12/31 07:15:35;;;;;;;5.47;4.97;;;4.90;38.40;;;;;;10558202;28;20228;-74
2023/12/31 07:20:39;;;;;;;4.90;4.40;;;4.90;38.40;;;;;;10561417;27;20254;-74
2023/12/31 07:25:43;;;;;;;5.13;4.57;;;5.00;38.30;;;;;;10557848;28;20226;-74
2023/12/31 07:30:47;;;;;;;4.67;4.27;;;5.00;38.40;;;;;;10554650;28;20348;-74
2023/12/31 07:35:51;;;;;;;4.93;4.43;;;5.00;38.40;;;;;;10560088;27;20226;-74
2023/12/31 07:40:54;;;;;;;5.60;4.97;;;5.00;38.40;;;;;;10559904;28;20657;-74
2023/12/31 07:45:59;;;;;;;15.27;10.17;;;5.00;38.40;;;;;;10559859;28;20306;-74
2023/12/31 07:51:03;;;;;;;16.10;10.63;;;5.00;38.30;;;;;;10559799;28;20314;-74
2023/12/31 07:56:07;;;;;;;12.27;9.37;;;5.00;38.40;;;;;;10563287;27;20232;-74
2023/12/31 08:01:12;;;;;;;12.27;9.80;;;4.90;38.40;;;;;;10557944;27;20654;-74
2023/12/31 08:06:15;;;;;;;12.03;8.70;;;4.90;38.80;;;;;;10555403;27;20226;-74
2023/12/31 08:11:20;;;;;;;9.53;8.43;;;4.90;38.70;;;;;;10559743;28;20293;-74
2023/12/31 08:16:24;;;;;;;12.40;10.37;;;4.90;38.70;;;;;;10560990;27;20230;-74
2023/12/31 08:21:28;;;;;;;13.10;9.73;;;4.90;39.00;;;;;;10558358;28;20223;-74
2023/12/31 08:26:31;;;;;;;10.30;9.13;;;5.00;39.10;;;;;;10556204;28;20235;-74
2023/12/31 08:31:36;;;;;;;9.37;8.37;;;5.00;39.20;;;;;;10556225;27;20227;-74
2023/12/31 08:36:42;;;;;;;9.57;8.67;;;5.10;39.60;;;;;;10560419;28;20251;-74
2023/12/31 08:41:45;;;;;;;10.73;9.67;;;5.20;39.70;;;;;;10555391;28;20652;-75
2023/12/31 08:46:50;;;;;;;11.13;10.10;;;5.20;39.80;;;;;;10560124;27;20231;-74
2023/12/31 08:51:54;;;;;;;16.13;12.10;;;5.30;40.10;;;;;;10563659;28;20219;-74
2023/12/31 08:56:57;;;;;;;19.03;15.63;;;5.40;40.00;;;;;;10555526;28;20318;-74
2023/12/31 09:02:01;;;;;;;30.13;23.10;;;5.50;40.10;;;;;;10559480;28;20247;-74
2023/12/31 09:07:05;;;;;;;37.57;29.23;;;5.60;40.40;;;;;;10559067;28;20249;-74
2023/12/31 09:12:08;;;;;;;44.47;33.27;;;5.70;40.30;;;;;;10560042;28;20697;-74
2023/12/31 09:17:14;;;;;;;34.07;26.90;;;5.80;41.00;;;;;;10559134;28;20719;-74
2023/12/31 09:22:17;;;;;;;32.03;25.60;;;5.90;40.40;;;;;;10553407;28;20211;-74
2023/12/31 09:27:20;;;;;;;27.23;19.87;;;6.00;40.20;;;;;;10561101;28;20263;-74
2023/12/31 09:32:25;;;;;;;19.67;15.77;;;6.10;40.20;;;;;;10543939;28;20227;-74
2023/12/31 09:37:29;;;;;;;13.67;11.50;;;6.20;40.40;;;;;;10555746;28;20228;-74
2023/12/31 09:42:42;;;;;;;13.43;11.57;;;6.30;40.40;;;;;;10551179;28;20227;-74
2023/12/31 09:47:49;;;;;;;11.10;9.50;;;6.30;40.90;;;;;;10541263;28;20608;-74
2023/12/31 09:52:55;;;;;;;9.83;8.17;;;6.40;40.70;;;;;;10556661;28;20223;-74
2023/12/31 09:57:59;;;;;;;7.00;6.30;;;6.40;40.60;;;;;;10547517;28;20991;-74
2023/12/31 10:03:05;;;;;;;6.47;5.87;;;6.50;40.40;;;;;;10549091;28;20219;-73
2023/12/31 10:08:09;;;;;;;6.50;5.90;;;6.50;40.50;;;;;;10551267;28;20597;-74
2023/12/31 10:13:15;;;;;;;5.93;5.43;;;6.60;40.20;;;;;;10554603;28;20223;-73
2023/12/31 10:18:21;;;;;;;5.90;5.40;;;6.60;40.40;;;;;;10549150;28;20231;-73
2023/12/31 10:23:25;;;;;;;6.53;5.93;;;6.60;40.20;;;;;;10553061;28;20309;-73
2023/12/31 10:28:29;;;;;;;6.07;5.57;;;6.70;40.10;;;;;;10555032;27;20310;-73
2023/12/31 10:33:36;;;;;;;6.13;5.63;;;6.60;39.90;;;;;;10550517;27;20256;-73
2023/12/31 10:38:47;;;;;;;6.90;6.30;;;6.60;40.20;;;;;;10551523;27;20496;-74
2023/12/31 10:43:50;;;;;;;7.63;6.93;;;6.60;40.70;;;;;;10546049;28;20247;-74
2023/12/31 10:49:02;;;;;;;7.00;6.30;;;6.60;40.30;;;;;;10554341;28;20241;-74
2023/12/31 10:54:08;;;;;;;5.83;5.27;;;6.60;40.90;;;;;;10553510;28;20234;-74
2023/12/31 10:59:13;;;;;;;5.50;5.00;;;6.70;41.00;;;;;;10549670;27;20780;-74
2023/12/31 11:04:18;;;;;;;6.60;4.47;;;6.80;41.10;;;;;;10552108;27;20239;-74
2023/12/31 11:09:22;;;;;;;4.20;3.80;;;7.00;41.00;;;;;;10549684;28;21233;-74
2023/12/31 11:14:31;;;;;;;5.93;5.33;;;7.20;41.10;;;;;;10548027;28;20302;-74
2023/12/31 11:20:13;;;;;;;6.87;6.27;;;7.30;40.90;;;;;;10548714;28;20721;-74
2023/12/31 11:25:20;;;;;;;4.93;4.47;;;7.50;41.40;;;;;;10544646;28;20218;-74
2023/12/31 11:30:45;;;;;;;4.90;4.50;;;7.60;40.50;;;;;;10542893;28;20283;-74
2023/12/31 11:35:53;;;;;;;5.17;4.57;;;7.70;40.80;;;;;;10545792;27;20888;-75
2023/12/31 11:40:56;;;;;;;7.60;6.03;;;7.80;40.60;;;;;;10547116;28;20290;-75
2023/12/31 11:45:59;;;;;;;6.80;6.10;;;7.90;40.40;;;;;;10547371;28;20227;-75
2023/12/31 11:51:04;;;;;;;6.17;5.57;;;8.00;40.50;;;;;;10537252;28;20285;-73
2023/12/31 11:56:09;;;;;;;8.63;7.73;;;8.00;40.40;;;;;;10533316;28;20238;-73
2023/12/31 12:01:12;;;;;;;6.37;5.77;;;8.20;40.40;;;;;;10533266;28;20627;-73
2023/12/31 12:06:16;;;;;;;4.97;4.50;;;8.30;40.40;;;;;;10532572;28;20239;-73
2023/12/31 12:11:23;;;;;;;4.17;3.87;;;8.40;40.30;;;;;;10532805;28;20242;-73
2023/12/31 12:16:28;;;;;;;4.20;3.80;;;8.50;40.30;;;;;;10532325;28;20219;-74
2023/12/31 12:21:33;;;;;;;3.63;3.33;;;8.60;40.00;;;;;;10532047;28;20234;-73
2023/12/31 12:26:36;;;;;;;4.83;3.83;;;8.70;40.20;;;;;;10532028;28;20322;-73
2023/12/31 12:31:39;;;;;;;6.37;5.30;;;8.80;39.90;;;;;;10530591;28;20725;-74
2023/12/31 12:36:45;;;;;;;5.57;5.07;;;8.90;40.00;;;;;;10531474;28;20740;-73
2023/12/31 12:41:49;;;;;;;5.37;4.60;;;9.00;40.00;;;;;;10531477;28;20232;-73
2023/12/31 12:46:53;;;;;;;4.23;3.83;;;9.00;40.10;;;;;;10531137;28;20242;-73
2023/12/31 12:51:58;;;;;;;4.93;4.40;;;9.10;40.20;;;;;;10530774;28;20227;-74
2023/12/31 12:57:01;;;;;;;4.20;3.80;;;9.20;40.20;;;;;;10530908;28;20663;-73
2023/12/31 13:02:04;;;;;;;5.03;4.07;;;9.30;40.30;;;;;;10530582;28;20231;-73
2023/12/31 13:07:09;;;;;;;5.77;5.27;;;9.40;40.40;;;;;;10530414;28;20231;-73
2023/12/31 13:12:12;;;;;;;6.37;4.37;;;9.40;40.40;;;;;;10530345;28;20326;-73
2023/12/31 13:17:15;;;;;;;6.30;5.73;;;9.50;40.00;;;;;;10530435;28;20306;-73
2023/12/31 13:22:22;;;;;;;5.43;5.00;;;9.60;40.00;;;;;;10530271;28;20231;-73
2023/12/31 13:27:28;;;;;;;7.70;6.87;;;9.70;39.80;;;;;;10530050;28;20288;-73
2023/12/31 13:32:31;;;;;;;4.87;4.47;;;9.70;39.80;;;;;;10530217;28;20223;-73
2023/12/31 13:37:36;;;;;;;4.70;4.30;;;9.80;40.00;;;;;;10529669;28;20231;-73
2023/12/31 13:42:39;;;;;;;4.50;4.10;;;9.80;40.00;;;;;;10535669;28;20713;-73
2023/12/31 13:47:42;;;;;;;4.50;4.10;;;9.90;39.90;;;;;;10536710;28;20251;-73
2023/12/31 13:52:47;;;;;;;4.80;4.30;;;10.00;38.90;;;;;;10536819;28;20242;-73
2023/12/31 13:57:50;;;;;;;8.27;5.63;;;10.00;38.50;;;;;;10536476;28;20281;-73
2023/12/31 14:02:53;;;;;;;7.37;5.77;;;10.10;38.60;;;;;;10537806;28;20231;-74
2023/12/31 14:08:09;;;;;;;4.63;4.23;;;10.10;38.40;;;;;;10537401;28;20781;-73
2023/12/31 14:13:12;;;;;;;4.53;4.13;;;10.10;38.50;;;;;;10537168;28;20231;-73
2023/12/31 14:18:15;;;;;;;5.13;4.73;;;10.10;38.50;;;;;;10537034;28;20310;-73
2023/12/31 14:23:20;;;;;;;5.57;5.07;;;10.10;38.50;;;;;;10536713;28;20767;-74
2023/12/31 14:28:23;;;;;;;5.50;5.00;;;10.10;38.20;;;;;;10536685;28;20228;-74
2023/12/31 14:33:27;;;;;;;4.77;4.17;;;10.10;38.30;;;;;;10536773;28;20229;-74
2023/12/31 14:38:31;;;;;;;4.00;3.63;;;10.10;38.40;;;;;;10536215;28;20735;-73
2023/12/31 14:43:34;;;;;;;3.27;2.97;;;10.10;38.10;;;;;;10536009;28;20228;-74
2023/12/31 14:48:38;;;;;;;4.87;2.77;;;10.20;38.10;;;;;;10535928;28;20239;-73
2023/12/31 14:53:42;;;;;;;3.37;3.13;;;10.20;38.00;;;;;;10534816;28;20713;-74
2023/12/31 14:58:45;;;;;;;4.53;4.00;;;10.30;38.00;;;;;;10535558;28;20726;-74
2023/12/31 15:03:49;;;;;;;4.50;4.10;;;10.40;38.10;;;;;;10535210;28;20574;-74
2023/12/31 15:08:54;;;;;;;3.90;3.50;;;10.50;38.00;;;;;;10534999;28;20319;-74
2023/12/31 15:13:57;;;;;;;4.27;3.87;;;10.50;38.00;;;;;;10534664;28;20247;-73
2023/12/31 15:19:01;;;;;;;4.47;4.07;;;10.60;38.20;;;;;;10534724;28;20262;-74
2023/12/31 15:24:07;;;;;;;3.80;3.50;;;10.60;38.00;;;;;;10534323;28;20235;-74
2023/12/31 15:29:11;;;;;;;4.53;3.50;;;10.60;38.10;;;;;;10534022;28;20263;-73
2023/12/31 15:34:14;;;;;;;4.93;3.20;;;10.60;38.10;;;;;;10534132;28;20284;-73
2023/12/31 15:39:19;;;;;;;3.30;3.07;;;10.60;38.20;;;;;;10533868;28;20777;-74
2023/12/31 15:44:22;;;;;;;7.83;7.00;;;10.50;38.10;;;;;;10533777;28;20318;-74
2023/12/31 15:49:27;;;;;;;5.37;4.73;;;10.50;38.00;;;;;;10533390;28;20227;-74
2023/12/31 15:54:31;;;;;;;6.90;6.20;;;10.50;38.20;;;;;;10533462;28;20340;-74
2023/12/31 15:59:35;;;;;;;5.57;4.73;;;10.40;38.20;;;;;;10532837;28;20696;-74
2023/12/31 16:04:40;;;;;;;5.27;4.50;;;10.40;38.20;;;;;;10532515;28;20315;-74
2023/12/31 16:09:44;;;;;;;4.83;4.37;;;10.40;38.20;;;;;;10532400;28;20309;-74
2023/12/31 16:14:48;;;;;;;8.47;6.57;;;10.30;38.20;;;;;;10532437;28;20248;-74
2023/12/31 16:19:52;;;;;;;5.73;5.23;;;10.30;38.20;;;;;;10532327;28;20259;-74
2023/12/31 16:24:57;;;;;;;12.00;10.90;;;10.20;38.30;;;;;;10532262;28;20223;-74
2023/12/31 16:30:00;;;;;;;11.00;9.90;;;10.20;38.50;;;;;;10531748;28;20823;-74
2023/12/31 16:35:03;;;;;;;11.83;10.10;;;10.10;38.70;;;;;;10531542;28;20223;-74
2023/12/31 16:40:09;;;;;;;10.23;9.20;;;10.00;38.70;;;;;;10531306;28;20239;-76
2023/12/31 16:45:12;;;;;;;7.70;6.00;;;10.00;39.00;;;;;;10531367;28;20289;-74
2023/12/31 16:50:15;;;;;;;12.97;10.43;;;9.90;39.90;;;;;;10531151;28;20239;-74
2023/12/31 16:55:20;;;;;;;6.87;6.17;;;9.80;39.90;;;;;;10530912;28;20319;-74
2023/12/31 17:00:24;;;;;;;7.17;6.57;;;9.70;40.30;;;;;;10530822;28;20227;-74
2023/12/31 17:05:28;;;;;;;8.33;7.50;;;9.70;40.30;;;;;;10530752;28;20310;-74
2023/12/31 17:10:32;;;;;;;8.70;7.80;;;9.70;40.60;;;;;;10530421;28;20320;-74
2023/12/31 17:15:36;;;;;;;7.10;6.40;;;9.70;40.70;;;;;;10529848;28;20587;-74
2023/12/31 17:20:39;;;;;;;6.70;6.10;;;9.70;40.60;;;;;;10529965;28;20245;-74
2023/12/31 17:25:44;;;;;;;5.37;4.87;;;9.80;40.70;;;;;;10530253;28;20238;-74
2023/12/31 17:30:47;;;;;;;4.20;3.90;;;9.80;40.70;;;;;;10529920;28;20277;-74
2023/12/31 17:35:50;;;;;;;2.77;2.57;;;9.90;40.80;;;;;;10529884;28;20234;-74
2023/12/31 17:40:56;;;;;;;2.47;2.27;;;10.00;39.70;;;;;;10529855;28;20730;-74
2023/12/31 17:45:59;;;;;;;1.80;1.70;;;10.00;39.90;;;;;;10529633;28;20765;-74
2023/12/31 17:51:05;;;;;;;1.70;1.60;;;10.00;39.90;;;;;;10529228;28;20231;-74
2023/12/31 17:56:11;;;;;;;1.70;1.60;;;10.00;39.90;;;;;;10529744;28;20236;-74
2023/12/31 18:01:14;;;;;;;15.37;10.40;;;10.00;40.00;;;;;;10529069;28;20289;-74
2023/12/31 18:06:18;;;;;;;2.77;2.40;;;10.00;39.90;;;;;;10529225;28;20330;-74
2023/12/31 18:11:22;;;;;;;2.30;2.10;;;10.00;39.90;;;;;;10528880;28;20714;-74
2023/12/31 18:16:25;;;;;;;1.90;1.80;;;10.00;39.90;;;;;;10529049;28;20258;-74
2023/12/31 18:21:28;;;;;;;3.43;3.13;;;10.00;39.90;;;;;;10528859;28;20228;-73
2023/12/31 18:26:33;;;;;;;2.40;2.20;;;10.00;39.90;;;;;;10530684;28;20239;-74
2023/12/31 18:31:36;;;;;;;7.53;6.80;;;10.00;39.90;;;;;;10536672;28;20227;-74
2023/12/31 18:36:41;;;;;;;10.13;8.03;;;9.90;40.80;;;;;;10536441;28;20802;-74
2023/12/31 18:41:45;;;;;;;5.57;4.40;;;9.90;40.80;;;;;;10535875;28;20236;-74
2023/12/31 18:46:49;;;;;;;10.80;9.37;;;9.80;40.70;;;;;;10536045;28;20227;-74
2023/12/31 18:51:53;;;;;;;4.20;3.83;;;9.80;40.70;;;;;;10535841;28;20684;-74
2023/12/31 18:56:58;;;;;;;8.93;8.07;;;9.80;40.70;;;;;;10535633;28;20231;-74
2023/12/31 19:02:01;;;;;;;5.13;4.30;;;9.80;40.70;;;;;;10535649;28;20242;-74
2023/12/31 19:07:05;;;;;;;3.27;2.97;;;9.80;40.70;;;;;;10535101;28;20227;-74
2023/12/31 19:12:10;;;;;;;2.07;1.87;;;9.80;40.70;;;;;;10535000;28;20227;-74
2023/12/31 19:17:14;;;;;;;1.50;1.40;;;9.80;40.70;;;;;;10534843;28;20277;-74
2023/12/31 19:22:17;;;;;;;1.00;0.90;;;9.70;40.60;;;;;;10534663;28;20238;-74
2023/12/31 19:27:22;;;;;;;1.30;1.20;;;9.70;40.60;;;;;;10534494;28;20259;-74
2023/12/31 19:32:25;;;;;;;2.30;2.10;;;9.60;40.70;;;;;;10534153;28;20233;-74
2023/12/31 19:37:33;;;;;;;1.57;1.40;;;9.60;40.60;;;;;;10533362;28;20243;-74
2023/12/31 19:42:37;;;;;;;1.20;1.10;;;9.60;40.50;;;;;;10533899;28;20246;-74
2023/12/31 19:47:41;;;;;;;1.00;1.00;;;9.60;40.80;;;;;;10533393;28;20235;-73
2023/12/31 19:52:44;;;;;;;1.30;1.10;;;9.60;40.70;;;;;;10533457;28;20235;-73
2023/12/31 19:57:50;;;;;;;0.90;0.90;;;9.50;40.50;;;;;;10533014;28;20323;-73
2023/12/31 20:02:53;;;;;;;1.20;1.10;;;9.50;41.00;;;;;;10533109;28;20319;-73
2023/12/31 20:07:57;;;;;;;3.00;2.70;;;9.50;40.80;;;;;;10532995;28;20242;-73
2023/12/31 20:13:02;;;;;;;2.20;2.10;;;9.50;40.80;;;;;;10532120;28;20239;-74
2023/12/31 20:18:06;;;;;;;2.00;1.90;;;9.50;41.00;;;;;;10532304;28;20255;-73
2023/12/31 20:23:09;;;;;;;3.00;2.70;;;9.50;40.50;;;;;;10532161;28;20627;-73
2023/12/31 20:28:14;;;;;;;5.90;5.40;;;9.50;40.50;;;;;;10532028;28;20777;-73
2023/12/31 20:33:18;;;;;;;18.17;15.17;;;9.50;40.60;;;;;;10531980;28;20385;-73
2023/12/31 20:38:22;;;;;;;10.73;8.27;;;9.50;41.20;;;;;;10531388;28;20720;-73
2023/12/31 20:43:26;;;;;;;23.73;16.67;;;9.50;40.50;;;;;;10531711;28;20657;-73
2023/12/31 20:48:29;;;;;;;8.77;6.57;;;9.60;40.50;;;;;;10531235;28;20512;-73
2023/12/31 20:53:33;;;;;;;8.37;7.17;;;9.50;40.50;;;;;;10530008;28;20247;-73
2023/12/31 20:58:38;;;;;;;4.00;3.50;;;9.50;40.50;;;;;;10530736;28;20315;-73
2023/12/31 21:03:41;;;;;;;5.70;5.10;;;9.40;40.40;;;;;;10530468;28;20234;-74
2023/12/31 21:08:44;;;;;;;6.87;6.00;;;9.30;40.30;;;;;;10530270;28;20293;-74
2023/12/31 21:13:49;;;;;;;6.77;5.80;;;9.20;40.60;;;;;;10530877;28;20227;-74
2023/12/31 21:18:52;;;;;;;7.53;6.27;;;9.20;40.90;;;;;;10530275;28;20236;-74
2023/12/31 21:23:55;;;;;;;3.90;3.37;;;9.10;40.80;;;;;;10530363;28;20548;-74
2023/12/31 21:29:00;;;;;;;3.33;2.97;;;9.10;40.70;;;;;;10530137;28;20626;-74
2023/12/31 21:34:03;;;;;;;3.53;3.23;;;9.10;40.90;;;;;;10529930;28;20220;-74
2023/12/31 21:39:09;;;;;;;2.97;2.67;;;9.00;40.90;;;;;;10530051;28;20262;-74
2023/12/31 21:44:13;;;;;;;3.47;3.03;;;9.00;40.80;;;;;;10530352;28;20732;-74
2023/12/31 21:49:17;;;;;;;3.33;3.03;;;9.00;41.10;;;;;;10529958;28;20318;-74
2023/12/31 21:54:20;;;;;;;2.50;2.30;;;8.90;40.90;;;;;;10530233;28;20232;-74
2023/12/31 21:59:24;;;;;;;2.00;1.90;;;8.90;40.90;;;;;;10529635;28;20223;-74
2023/12/31 22:04:28;;;;;;;2.03;1.93;;;8.90;41.10;;;;;;10536993;28;20594;-74
2023/12/31 22:09:31;;;;;;;1.80;1.70;;;8.90;40.90;;;;;;10537770;28;20223;-74
2023/12/31 22:14:36;;;;;;;2.03;1.60;;;8.90;40.90;;;;;;10537492;28;20318;-74
2023/12/31 22:19:39;;;;;;;2.80;2.60;;;8.90;40.90;;;;;;10537273;28;20231;-74
2023/12/31 22:24:42;;;;;;;3.00;2.70;;;8.80;40.80;;;;;;10537264;28;20227;-74
2023/12/31 22:29:48;;;;;;;3.10;2.90;;;8.80;40.80;;;;;;10536556;28;20247;-74
2023/12/31 22:34:51;;;;;;;2.93;2.73;;;8.80;40.90;;;;;;10536716;28;20231;-75
2023/12/31 22:39:54;;;;;;;3.90;3.50;;;8.70;40.80;;;;;;10536663;28;20330;-74
2023/12/31 22:44:59;;;;;;;3.10;2.67;;;8.70;40.90;;;;;;10536612;28;20300;-74
2023/12/31 22:50:02;;;;;;;3.20;2.90;;;8.70;41.10;;;;;;10535860;28;20227;-74
2023/12/31 22:55:06;;;;;;;3.53;3.23;;;8.70;41.00;;;;;;10536363;28;20227;-74
2023/12/31 23:00:15;;;;;;;3.37;3.07;;;8.70;41.00;;;;;;10535685;28;20228;-75
2023/12/31 23:05:18;;;;;;;23.57;13.20;;;8.80;40.90;;;;;;10535133;28;20288;-74
2023/12/31 23:10:21;;;;;;;182.43;142.83;;;8.80;40.80;;;;;;10535111;28;20704;-75
2023/12/31 23:15:26;;;;;;;138.67;120.23;;;8.70;40.90;;;;;;10534529;28;20315;-74
2023/12/31 23:20:29;;;;;;;131.27;117.17;;;8.70;40.90;;;;;;10535062;28;20280;-77
2023/12/31 23:25:32;;;;;;;110.97;99.40;;;8.80;40.80;;;;;;10534456;28;20778;-74
2023/12/31 23:30:37;;;;;;;76.47;65.37;;;8.70;40.70;;;;;;10534075;28;20254;-74
2023/12/31 23:35:40;;;;;;;85.60;75.07;;;8.60;40.80;;;;;;10534047;28;20236;-74
2023/12/31 23:40:43;;;;;;;68.57;60.60;;;8.50;40.70;;;;;;10533887;28;20652;-74
2023/12/31 23:45:49;;;;;;;60.90;52.67;;;8.40;40.80;;;;;;10533743;28;20302;-74
2023/12/31 23:50:52;;;;;;;39.23;32.37;;;8.40;41.30;;;;;;10533268;28;20308;-74
2023/12/31 23:55:55;;;;;;;25.30;22.70;;;8.40;41.10;;;;;;10533422;28;20636;-74
